sensor_id;sensor_type;location;lat;lon;timestamp;temperature;humidity
42097;DHT22;27754;45.414;11.084;2023-04-24T00:01:22;17.10;69.60
42097;DHT22;27754;45.414;11.084;2023-04-24T00:03:48;17.10;69.70
42097;DHT22;27754;45.414;11.084;2023-04-24T00:06:16;17.10;70.20
42097;DHT22;27754;45.414;11.084;2023-04-24T00:08:43;17.00;70.40
42097;DHT22;27754;45.414;11.084;2023-04-24T00:11:10;17.00;70.70
42097;DHT22;27754;45.414;11.084;2023-04-24T00:13:38;17.00;70.90
42097;DHT22;27754;45.414;11.084;2023-04-24T00:16:05;17.00;71.40
42097;DHT22;27754;45.414;11.084;2023-04-24T00:18:32;16.90;71.50
42097;DHT22;27754;45.414;11.084;2023-04-24T00:20:59;17.00;71.70
42097;DHT22;27754;45.414;11.084;2023-04-24T00:23:26;16.90;71.90
42097;DHT22;27754;45.414;11.084;2023-04-24T00:25:53;16.90;72.30
42097;DHT22;27754;45.414;11.084;2023-04-24T00:28:20;16.90;72.60
42097;DHT22;27754;45.414;11.084;2023-04-24T00:30:47;16.90;72.90
42097;DHT22;27754;45.414;11.084;2023-04-24T00:33:14;16.90;73.10
42097;DHT22;27754;45.414;11.084;2023-04-24T00:35:41;16.90;73.20
42097;DHT22;27754;45.414;11.084;2023-04-24T00:38:10;16.90;73.10
42097;DHT22;27754;45.414;11.084;2023-04-24T00:40:37;16.80;73.40
42097;DHT22;27754;45.414;11.084;2023-04-24T00:43:04;16.80;73.70
42097;DHT22;27754;45.414;11.084;2023-04-24T00:45:31;16.80;74.10
42097;DHT22;27754;45.414;11.084;2023-04-24T00:47:58;16.80;74.00
42097;DHT22;27754;45.414;11.084;2023-04-24T00:50:28;16.80;74.10
42097;DHT22;27754;45.414;11.084;2023-04-24T00:52:55;16.80;74.20
42097;DHT22;27754;45.414;11.084;2023-04-24T00:55:22;16.80;74.20
42097;DHT22;27754;45.414;11.084;2023-04-24T00:57:49;16.80;74.40
42097;DHT22;27754;45.414;11.084;2023-04-24T01:00:16;16.80;74.80
42097;DHT22;27754;45.414;11.084;2023-04-24T01:02:44;16.80;74.70
42097;DHT22;27754;45.414;11.084;2023-04-24T01:05:13;16.80;74.90
42097;DHT22;27754;45.414;11.084;2023-04-24T01:07:44;16.80;75.10
42097;DHT22;27754;45.414;11.084;2023-04-24T01:10:13;16.80;75.00
42097;DHT22;27754;45.414;11.084;2023-04-24T01:12:40;16.70;75.30
42097;DHT22;27754;45.414;11.084;2023-04-24T01:15:08;16.70;75.50
42097;DHT22;27754;45.414;11.084;2023-04-24T01:17:35;16.70;75.80
42097;DHT22;27754;45.414;11.084;2023-04-24T01:20:03;16.60;75.80
42097;DHT22;27754;45.414;11.084;2023-04-24T01:22:35;16.60;75.80
42097;DHT22;27754;45.414;11.084;2023-04-24T01:25:03;16.60;76.10
42097;DHT22;27754;45.414;11.084;2023-04-24T01:27:30;16.60;75.90
42097;DHT22;27754;45.414;11.084;2023-04-24T01:29:57;16.60;76.10
42097;DHT22;27754;45.414;11.084;2023-04-24T01:32:25;16.60;76.10
42097;DHT22;27754;45.414;11.084;2023-04-24T01:34:52;16.60;76.00
42097;DHT22;27754;45.414;11.084;2023-04-24T01:37:19;16.50;76.10
42097;DHT22;27754;45.414;11.084;2023-04-24T01:39:46;16.50;76.20
42097;DHT22;27754;45.414;11.084;2023-04-24T01:42:13;16.50;76.30
42097;DHT22;27754;45.414;11.084;2023-04-24T01:44:41;16.60;76.00
42097;DHT22;27754;45.414;11.084;2023-04-24T01:47:08;16.50;75.90
42097;DHT22;27754;45.414;11.084;2023-04-24T01:49:37;16.50;76.30
42097;DHT22;27754;45.414;11.084;2023-04-24T01:52:06;16.50;76.80
42097;DHT22;27754;45.414;11.084;2023-04-24T01:54:33;16.50;77.00
42097;DHT22;27754;45.414;11.084;2023-04-24T01:57:01;16.40;77.00
42097;DHT22;27754;45.414;11.084;2023-04-24T01:59:29;16.50;76.80
42097;DHT22;27754;45.414;11.084;2023-04-24T02:01:57;16.40;76.80
42097;DHT22;27754;45.414;11.084;2023-04-24T02:04:24;16.40;77.00
42097;DHT22;27754;45.414;11.084;2023-04-24T02:06:51;16.40;76.90
42097;DHT22;27754;45.414;11.084;2023-04-24T02:09:18;16.40;76.70
42097;DHT22;27754;45.414;11.084;2023-04-24T02:11:45;16.30;76.90
42097;DHT22;27754;45.414;11.084;2023-04-24T02:14:12;16.30;77.60
42097;DHT22;27754;45.414;11.084;2023-04-24T02:16:39;16.20;78.30
42097;DHT22;27754;45.414;11.084;2023-04-24T02:19:06;16.20;79.20
42097;DHT22;27754;45.414;11.084;2023-04-24T02:21:33;16.10;79.40
42097;DHT22;27754;45.414;11.084;2023-04-24T02:24:01;16.10;80.10
42097;DHT22;27754;45.414;11.084;2023-04-24T02:26:28;16.00;81.20
42097;DHT22;27754;45.414;11.084;2023-04-24T02:28:54;15.90;81.50
42097;DHT22;27754;45.414;11.084;2023-04-24T02:31:22;15.80;81.60
42097;DHT22;27754;45.414;11.084;2023-04-24T02:33:49;15.70;82.50
42097;DHT22;27754;45.414;11.084;2023-04-24T02:36:16;15.60;83.50
42097;DHT22;27754;45.414;11.084;2023-04-24T02:38:42;15.50;84.10
42097;DHT22;27754;45.414;11.084;2023-04-24T02:41:11;15.40;84.40
42097;DHT22;27754;45.414;11.084;2023-04-24T02:43:38;15.40;85.00
42097;DHT22;27754;45.414;11.084;2023-04-24T02:46:05;15.30;85.00
42097;DHT22;27754;45.414;11.084;2023-04-24T02:48:32;15.30;85.50
42097;DHT22;27754;45.414;11.084;2023-04-24T02:50:59;15.20;85.70
42097;DHT22;27754;45.414;11.084;2023-04-24T02:53:26;15.20;85.90
42097;DHT22;27754;45.414;11.084;2023-04-24T02:55:53;15.10;86.60
42097;DHT22;27754;45.414;11.084;2023-04-24T02:58:20;15.10;86.60
42097;DHT22;27754;45.414;11.084;2023-04-24T03:00:47;15.00;87.20
42097;DHT22;27754;45.414;11.084;2023-04-24T03:03:14;14.90;87.10
42097;DHT22;27754;45.414;11.084;2023-04-24T03:05:42;14.90;87.50
42097;DHT22;27754;45.414;11.084;2023-04-24T03:08:09;14.90;87.70
42097;DHT22;27754;45.414;11.084;2023-04-24T03:10:37;14.90;88.20
42097;DHT22;27754;45.414;11.084;2023-04-24T03:13:04;14.80;88.70
42097;DHT22;27754;45.414;11.084;2023-04-24T03:15:31;14.90;88.90
42097;DHT22;27754;45.414;11.084;2023-04-24T03:17:58;14.90;88.80
42097;DHT22;27754;45.414;11.084;2023-04-24T03:20:25;14.80;88.70
42097;DHT22;27754;45.414;11.084;2023-04-24T03:22:54;14.90;88.70
42097;DHT22;27754;45.414;11.084;2023-04-24T03:25:21;14.90;88.90
42097;DHT22;27754;45.414;11.084;2023-04-24T03:27:48;14.90;89.00
42097;DHT22;27754;45.414;11.084;2023-04-24T03:30:50;15.00;88.90
42097;DHT22;27754;45.414;11.084;2023-04-24T03:33:18;15.00;89.50
42097;DHT22;27754;45.414;11.084;2023-04-24T03:35:58;15.00;89.40
42097;DHT22;27754;45.414;11.084;2023-04-24T03:38:26;15.00;89.60
42097;DHT22;27754;45.414;11.084;2023-04-24T03:41:12;14.90;89.50
42097;DHT22;27754;45.414;11.084;2023-04-24T03:43:44;14.90;89.40
42097;DHT22;27754;45.414;11.084;2023-04-24T03:46:12;14.90;89.40
42097;DHT22;27754;45.414;11.084;2023-04-24T03:48:44;14.90;89.20
42097;DHT22;27754;45.414;11.084;2023-04-24T03:51:12;14.80;89.30
42097;DHT22;27754;45.414;11.084;2023-04-24T03:53:43;14.70;89.50
42097;DHT22;27754;45.414;11.084;2023-04-24T03:56:12;14.60;89.90
42097;DHT22;27754;45.414;11.084;2023-04-24T03:58:40;14.50;89.80
42097;DHT22;27754;45.414;11.084;2023-04-24T04:01:07;14.50;89.80
42097;DHT22;27754;45.414;11.084;2023-04-24T04:03:40;14.60;89.90
42097;DHT22;27754;45.414;11.084;2023-04-24T04:06:07;14.60;89.40
42097;DHT22;27754;45.414;11.084;2023-04-24T04:08:34;14.70;89.30
42097;DHT22;27754;45.414;11.084;2023-04-24T04:11:02;14.70;89.30
42097;DHT22;27754;45.414;11.084;2023-04-24T04:13:31;14.60;89.20
42097;DHT22;27754;45.414;11.084;2023-04-24T04:15:58;14.60;88.50
42097;DHT22;27754;45.414;11.084;2023-04-24T04:18:25;14.60;88.30
42097;DHT22;27754;45.414;11.084;2023-04-24T04:20:53;14.60;88.30
42097;DHT22;27754;45.414;11.084;2023-04-24T04:23:20;14.40;88.30
42097;DHT22;27754;45.414;11.084;2023-04-24T04:26:04;14.40;89.10
42097;DHT22;27754;45.414;11.084;2023-04-24T04:28:47;14.50;89.20
42097;DHT22;27754;45.414;11.084;2023-04-24T04:31:14;14.50;89.60
42097;DHT22;27754;45.414;11.084;2023-04-24T04:33:41;14.50;89.80
42097;DHT22;27754;45.414;11.084;2023-04-24T04:36:09;14.40;90.40
42097;DHT22;27754;45.414;11.084;2023-04-24T04:38:41;14.40;90.60
42097;DHT22;27754;45.414;11.084;2023-04-24T04:41:35;14.40;90.80
42097;DHT22;27754;45.414;11.084;2023-04-24T04:44:02;14.40;91.00
42097;DHT22;27754;45.414;11.084;2023-04-24T04:46:32;14.30;91.10
42097;DHT22;27754;45.414;11.084;2023-04-24T04:49:20;14.30;91.40
42097;DHT22;27754;45.414;11.084;2023-04-24T04:51:48;14.30;91.60
42097;DHT22;27754;45.414;11.084;2023-04-24T04:54:15;14.20;91.80
42097;DHT22;27754;45.414;11.084;2023-04-24T04:56:42;14.20;91.80
42097;DHT22;27754;45.414;11.084;2023-04-24T04:59:09;14.10;92.20
42097;DHT22;27754;45.414;11.084;2023-04-24T05:01:38;14.20;92.30
42097;DHT22;27754;45.414;11.084;2023-04-24T05:04:07;14.20;92.30
42097;DHT22;27754;45.414;11.084;2023-04-24T05:06:34;14.30;92.60
42097;DHT22;27754;45.414;11.084;2023-04-24T05:09:01;14.30;92.60
42097;DHT22;27754;45.414;11.084;2023-04-24T05:11:46;14.30;92.50
42097;DHT22;27754;45.414;11.084;2023-04-24T05:14:13;14.30;92.70
42097;DHT22;27754;45.414;11.084;2023-04-24T05:16:41;14.30;92.80
42097;DHT22;27754;45.414;11.084;2023-04-24T05:19:10;14.30;92.80
42097;DHT22;27754;45.414;11.084;2023-04-24T05:21:43;14.30;92.80
42097;DHT22;27754;45.414;11.084;2023-04-24T05:24:10;14.30;92.90
42097;DHT22;27754;45.414;11.084;2023-04-24T05:26:47;14.10;92.60
42097;DHT22;27754;45.414;11.084;2023-04-24T05:29:18;14.00;92.90
42097;DHT22;27754;45.414;11.084;2023-04-24T05:31:46;14.00;92.50
42097;DHT22;27754;45.414;11.084;2023-04-24T05:34:14;13.90;92.00
42097;DHT22;27754;45.414;11.084;2023-04-24T05:36:44;13.90;91.90
42097;DHT22;27754;45.414;11.084;2023-04-24T05:39:11;13.90;91.30
42097;DHT22;27754;45.414;11.084;2023-04-24T05:41:38;13.80;91.60
42097;DHT22;27754;45.414;11.084;2023-04-24T05:44:05;13.80;90.30
42097;DHT22;27754;45.414;11.084;2023-04-24T05:46:32;13.70;87.80
42097;DHT22;27754;45.414;11.084;2023-04-24T05:48:59;13.60;87.40
42097;DHT22;27754;45.414;11.084;2023-04-24T05:51:26;13.60;85.70
42097;DHT22;27754;45.414;11.084;2023-04-24T05:53:53;13.60;86.40
42097;DHT22;27754;45.414;11.084;2023-04-24T05:56:21;13.50;86.50
42097;DHT22;27754;45.414;11.084;2023-04-24T05:58:49;13.50;86.20
42097;DHT22;27754;45.414;11.084;2023-04-24T06:01:16;13.50;86.60
42097;DHT22;27754;45.414;11.084;2023-04-24T06:03:47;13.50;86.60
42097;DHT22;27754;45.414;11.084;2023-04-24T06:06:14;13.70;87.10
42097;DHT22;27754;45.414;11.084;2023-04-24T06:08:42;13.80;87.70
42097;DHT22;27754;45.414;11.084;2023-04-24T06:11:10;13.90;88.10
42097;DHT22;27754;45.414;11.084;2023-04-24T06:13:40;13.90;87.90
42097;DHT22;27754;45.414;11.084;2023-04-24T06:16:27;14.00;87.80
42097;DHT22;27754;45.414;11.084;2023-04-24T06:19:01;14.00;87.10
42097;DHT22;27754;45.414;11.084;2023-04-24T06:21:29;14.00;86.60
42097;DHT22;27754;45.414;11.084;2023-04-24T06:23:56;14.00;87.60
42097;DHT22;27754;45.414;11.084;2023-04-24T06:26:23;14.10;87.70
42097;DHT22;27754;45.414;11.084;2023-04-24T06:28:51;14.10;87.50
42097;DHT22;27754;45.414;11.084;2023-04-24T06:31:20;14.10;87.80
42097;DHT22;27754;45.414;11.084;2023-04-24T06:33:48;14.20;88.20
42097;DHT22;27754;45.414;11.084;2023-04-24T06:36:16;14.20;88.30
42097;DHT22;27754;45.414;11.084;2023-04-24T06:38:43;14.40;88.00
42097;DHT22;27754;45.414;11.084;2023-04-24T06:41:10;14.40;88.10
42097;DHT22;27754;45.414;11.084;2023-04-24T06:43:37;14.40;88.20
42097;DHT22;27754;45.414;11.084;2023-04-24T06:46:04;14.40;88.20
42097;DHT22;27754;45.414;11.084;2023-04-24T06:48:31;14.50;88.20
42097;DHT22;27754;45.414;11.084;2023-04-24T06:50:58;14.60;88.10
42097;DHT22;27754;45.414;11.084;2023-04-24T06:53:25;14.70;88.40
42097;DHT22;27754;45.414;11.084;2023-04-24T06:55:52;14.80;88.30
42097;DHT22;27754;45.414;11.084;2023-04-24T06:58:19;14.90;88.20
42097;DHT22;27754;45.414;11.084;2023-04-24T07:00:46;14.90;88.00
42097;DHT22;27754;45.414;11.084;2023-04-24T07:03:13;15.00;87.80
42097;DHT22;27754;45.414;11.084;2023-04-24T07:05:41;15.10;87.60
42097;DHT22;27754;45.414;11.084;2023-04-24T07:08:08;15.20;86.50
42097;DHT22;27754;45.414;11.084;2023-04-24T07:10:38;15.30;85.90
42097;DHT22;27754;45.414;11.084;2023-04-24T07:13:05;15.30;85.90
42097;DHT22;27754;45.414;11.084;2023-04-24T07:15:33;15.40;86.10
42097;DHT22;27754;45.414;11.084;2023-04-24T07:18:00;15.60;85.80
42097;DHT22;27754;45.414;11.084;2023-04-24T07:20:31;15.70;85.10
42097;DHT22;27754;45.414;11.084;2023-04-24T07:22:58;15.70;83.80
42097;DHT22;27754;45.414;11.084;2023-04-24T07:25:25;15.80;83.30
42097;DHT22;27754;45.414;11.084;2023-04-24T07:27:52;15.90;83.00
42097;DHT22;27754;45.414;11.084;2023-04-24T07:30:19;16.00;82.00
42097;DHT22;27754;45.414;11.084;2023-04-24T07:32:46;16.20;81.20
42097;DHT22;27754;45.414;11.084;2023-04-24T07:35:13;16.20;81.90
42097;DHT22;27754;45.414;11.084;2023-04-24T07:37:40;16.20;81.70
42097;DHT22;27754;45.414;11.084;2023-04-24T07:40:15;16.20;81.80
42097;DHT22;27754;45.414;11.084;2023-04-24T07:42:42;16.10;80.00
42097;DHT22;27754;45.414;11.084;2023-04-24T07:45:10;16.30;80.50
42097;DHT22;27754;45.414;11.084;2023-04-24T07:47:37;16.50;81.40
42097;DHT22;27754;45.414;11.084;2023-04-24T07:50:06;16.50;80.90
42097;DHT22;27754;45.414;11.084;2023-04-24T07:52:33;16.60;81.10
42097;DHT22;27754;45.414;11.084;2023-04-24T07:55:00;16.60;81.80
42097;DHT22;27754;45.414;11.084;2023-04-24T07:57:28;16.60;82.20
42097;DHT22;27754;45.414;11.084;2023-04-24T07:59:55;16.70;82.20
42097;DHT22;27754;45.414;11.084;2023-04-24T08:02:22;16.70;82.40
42097;DHT22;27754;45.414;11.084;2023-04-24T08:04:53;16.70;81.40
42097;DHT22;27754;45.414;11.084;2023-04-24T08:07:21;16.60;83.00
42097;DHT22;27754;45.414;11.084;2023-04-24T08:09:48;16.60;82.80
42097;DHT22;27754;45.414;11.084;2023-04-24T08:12:15;16.70;83.10
42097;DHT22;27754;45.414;11.084;2023-04-24T08:14:42;16.70;82.60
42097;DHT22;27754;45.414;11.084;2023-04-24T08:17:09;16.80;83.10
42097;DHT22;27754;45.414;11.084;2023-04-24T08:19:36;16.80;83.40
42097;DHT22;27754;45.414;11.084;2023-04-24T08:22:03;16.80;82.90
42097;DHT22;27754;45.414;11.084;2023-04-24T08:24:30;16.90;82.30
42097;DHT22;27754;45.414;11.084;2023-04-24T08:26:57;17.00;81.30
42097;DHT22;27754;45.414;11.084;2023-04-24T08:29:24;17.10;80.40
42097;DHT22;27754;45.414;11.084;2023-04-24T08:31:51;16.90;78.10
42097;DHT22;27754;45.414;11.084;2023-04-24T08:34:21;16.90;77.30
42097;DHT22;27754;45.414;11.084;2023-04-24T08:36:48;17.00;77.40
42097;DHT22;27754;45.414;11.084;2023-04-24T08:39:15;17.00;75.00
42097;DHT22;27754;45.414;11.084;2023-04-24T08:41:43;16.90;73.60
42097;DHT22;27754;45.414;11.084;2023-04-24T08:44:12;16.90;72.00
42097;DHT22;27754;45.414;11.084;2023-04-24T08:46:47;16.90;70.00
42097;DHT22;27754;45.414;11.084;2023-04-24T08:49:15;16.90;69.30
42097;DHT22;27754;45.414;11.084;2023-04-24T08:51:45;16.90;71.20
42097;DHT22;27754;45.414;11.084;2023-04-24T08:54:14;17.00;71.30
42097;DHT22;27754;45.414;11.084;2023-04-24T08:56:44;16.90;69.70
42097;DHT22;27754;45.414;11.084;2023-04-24T08:59:12;17.00;70.40
42097;DHT22;27754;45.414;11.084;2023-04-24T09:01:40;16.90;68.40
42097;DHT22;27754;45.414;11.084;2023-04-24T09:04:09;17.00;69.20
42097;DHT22;27754;45.414;11.084;2023-04-24T09:06:42;17.10;70.80
42097;DHT22;27754;45.414;11.084;2023-04-24T09:09:10;17.20;71.70
42097;DHT22;27754;45.414;11.084;2023-04-24T09:11:38;17.30;72.50
42097;DHT22;27754;45.414;11.084;2023-04-24T09:14:05;17.40;71.80
42097;DHT22;27754;45.414;11.084;2023-04-24T09:16:33;17.50;70.90
42097;DHT22;27754;45.414;11.084;2023-04-24T09:19:02;17.50;70.00
42097;DHT22;27754;45.414;11.084;2023-04-24T09:21:34;17.50;70.20
42097;DHT22;27754;45.414;11.084;2023-04-24T09:24:07;17.60;71.20
42097;DHT22;27754;45.414;11.084;2023-04-24T09:26:37;17.70;70.60
42097;DHT22;27754;45.414;11.084;2023-04-24T09:29:04;17.90;68.80
42097;DHT22;27754;45.414;11.084;2023-04-24T09:31:31;17.90;67.40
42097;DHT22;27754;45.414;11.084;2023-04-24T09:34:01;17.70;68.10
42097;DHT22;27754;45.414;11.084;2023-04-24T09:36:33;17.60;67.70
42097;DHT22;27754;45.414;11.084;2023-04-24T09:39:02;17.90;68.80
42097;DHT22;27754;45.414;11.084;2023-04-24T09:41:29;18.00;68.80
42097;DHT22;27754;45.414;11.084;2023-04-24T09:43:57;18.10;67.10
42097;DHT22;27754;45.414;11.084;2023-04-24T09:46:31;18.30;67.50
42097;DHT22;27754;45.414;11.084;2023-04-24T09:49:08;18.50;67.20
42097;DHT22;27754;45.414;11.084;2023-04-24T09:51:36;18.60;65.70
42097;DHT22;27754;45.414;11.084;2023-04-24T09:54:20;18.80;66.60
42097;DHT22;27754;45.414;11.084;2023-04-24T09:56:50;18.80;68.20
42097;DHT22;27754;45.414;11.084;2023-04-24T09:59:18;18.80;65.80
42097;DHT22;27754;45.414;11.084;2023-04-24T10:01:46;18.90;66.90
42097;DHT22;27754;45.414;11.084;2023-04-24T10:04:17;18.90;66.10
42097;DHT22;27754;45.414;11.084;2023-04-24T10:06:48;18.80;66.50
42097;DHT22;27754;45.414;11.084;2023-04-24T10:09:16;18.90;68.60
42097;DHT22;27754;45.414;11.084;2023-04-24T10:11:45;19.00;66.80
42097;DHT22;27754;45.414;11.084;2023-04-24T10:14:18;19.20;67.90
42097;DHT22;27754;45.414;11.084;2023-04-24T10:16:45;19.30;66.80
42097;DHT22;27754;45.414;11.084;2023-04-24T10:19:14;19.20;64.90
42097;DHT22;27754;45.414;11.084;2023-04-24T10:21:43;19.30;66.50
42097;DHT22;27754;45.414;11.084;2023-04-24T10:24:17;19.10;62.10
42097;DHT22;27754;45.414;11.084;2023-04-24T10:26:45;19.10;62.90
42097;DHT22;27754;45.414;11.084;2023-04-24T10:29:14;19.20;63.40
42097;DHT22;27754;45.414;11.084;2023-04-24T10:31:42;19.30;65.00
42097;DHT22;27754;45.414;11.084;2023-04-24T10:34:14;19.30;63.10
42097;DHT22;27754;45.414;11.084;2023-04-24T10:36:49;19.30;64.90
42097;DHT22;27754;45.414;11.084;2023-04-24T10:39:18;19.30;63.20
42097;DHT22;27754;45.414;11.084;2023-04-24T10:41:54;19.40;64.80
42097;DHT22;27754;45.414;11.084;2023-04-24T10:44:24;19.40;63.90
42097;DHT22;27754;45.414;11.084;2023-04-24T10:46:55;19.60;64.90
42097;DHT22;27754;45.414;11.084;2023-04-24T10:49:30;19.60;64.20
42097;DHT22;27754;45.414;11.084;2023-04-24T10:52:02;19.80;63.10
42097;DHT22;27754;45.414;11.084;2023-04-24T10:54:45;20.00;66.90
42097;DHT22;27754;45.414;11.084;2023-04-24T10:59:47;20.30;62.60
42097;DHT22;27754;45.414;11.084;2023-04-24T11:02:14;20.40;65.50
42097;DHT22;27754;45.414;11.084;2023-04-24T11:04:42;20.60;64.30
42097;DHT22;27754;45.414;11.084;2023-04-24T11:07:10;20.50;63.40
42097;DHT22;27754;45.414;11.084;2023-04-24T11:09:38;20.60;62.30
42097;DHT22;27754;45.414;11.084;2023-04-24T11:12:08;20.70;60.90
42097;DHT22;27754;45.414;11.084;2023-04-24T11:17:32;20.80;63.00
42097;DHT22;27754;45.414;11.084;2023-04-24T11:20:11;20.80;61.20
42097;DHT22;27754;45.414;11.084;2023-04-24T11:22:54;20.90;59.10
42097;DHT22;27754;45.414;11.084;2023-04-24T11:25:22;20.90;60.20
42097;DHT22;27754;45.414;11.084;2023-04-24T11:27:49;21.00;58.70
42097;DHT22;27754;45.414;11.084;2023-04-24T11:30:18;20.90;58.40
42097;DHT22;27754;45.414;11.084;2023-04-24T11:32:50;21.00;61.20
42097;DHT22;27754;45.414;11.084;2023-04-24T11:35:22;21.10;59.70
42097;DHT22;27754;45.414;11.084;2023-04-24T11:37:53;21.30;60.90
42097;DHT22;27754;45.414;11.084;2023-04-24T11:40:40;21.20;61.30
42097;DHT22;27754;45.414;11.084;2023-04-24T11:43:09;21.20;60.30
42097;DHT22;27754;45.414;11.084;2023-04-24T11:45:36;21.30;59.70
42097;DHT22;27754;45.414;11.084;2023-04-24T11:48:03;21.30;60.10
42097;DHT22;27754;45.414;11.084;2023-04-24T11:50:30;21.40;57.70
42097;DHT22;27754;45.414;11.084;2023-04-24T11:52:57;21.30;58.10
42097;DHT22;27754;45.414;11.084;2023-04-24T11:55:28;21.20;60.40
42097;DHT22;27754;45.414;11.084;2023-04-24T11:57:57;21.30;58.20
42097;DHT22;27754;45.414;11.084;2023-04-24T12:00:25;21.10;58.50
42097;DHT22;27754;45.414;11.084;2023-04-24T12:03:07;21.10;59.10
42097;DHT22;27754;45.414;11.084;2023-04-24T12:05:35;21.10;59.60
42097;DHT22;27754;45.414;11.084;2023-04-24T12:08:02;21.30;61.10
42097;DHT22;27754;45.414;11.084;2023-04-24T12:10:31;21.40;60.00
42097;DHT22;27754;45.414;11.084;2023-04-24T12:12:59;21.30;60.40
42097;DHT22;27754;45.414;11.084;2023-04-24T12:15:26;21.10;59.10
42097;DHT22;27754;45.414;11.084;2023-04-24T12:17:55;21.00;58.10
42097;DHT22;27754;45.414;11.084;2023-04-24T12:20:31;21.10;56.90
42097;DHT22;27754;45.414;11.084;2023-04-24T12:23:00;21.20;57.80
42097;DHT22;27754;45.414;11.084;2023-04-24T12:25:33;21.20;59.00
42097;DHT22;27754;45.414;11.084;2023-04-24T12:30:38;21.10;56.00
42097;DHT22;27754;45.414;11.084;2023-04-24T12:33:05;21.10;56.60
42097;DHT22;27754;45.414;11.084;2023-04-24T12:35:33;21.00;55.10
42097;DHT22;27754;45.414;11.084;2023-04-24T12:38:11;21.00;55.20
42097;DHT22;27754;45.414;11.084;2023-04-24T12:40:43;20.90;55.10
42097;DHT22;27754;45.414;11.084;2023-04-24T12:43:18;20.90;57.90
42097;DHT22;27754;45.414;11.084;2023-04-24T12:45:47;21.00;57.40
42097;DHT22;27754;45.414;11.084;2023-04-24T12:48:14;21.20;54.60
42097;DHT22;27754;45.414;11.084;2023-04-24T12:50:43;21.30;52.80
42097;DHT22;27754;45.414;11.084;2023-04-24T12:53:13;21.30;52.50
42097;DHT22;27754;45.414;11.084;2023-04-24T12:55:40;21.30;52.70
42097;DHT22;27754;45.414;11.084;2023-04-24T12:58:07;21.40;51.70
42097;DHT22;27754;45.414;11.084;2023-04-24T13:00:34;21.60;53.50
42097;DHT22;27754;45.414;11.084;2023-04-24T13:03:02;21.80;55.10
42097;DHT22;27754;45.414;11.084;2023-04-24T13:05:30;21.70;53.60
42097;DHT22;27754;45.414;11.084;2023-04-24T13:07:57;21.80;53.80
42097;DHT22;27754;45.414;11.084;2023-04-24T13:10:24;21.80;56.10
42097;DHT22;27754;45.414;11.084;2023-04-24T13:12:51;21.80;53.70
42097;DHT22;27754;45.414;11.084;2023-04-24T13:15:18;21.90;53.30
42097;DHT22;27754;45.414;11.084;2023-04-24T13:17:45;21.90;53.40
42097;DHT22;27754;45.414;11.084;2023-04-24T13:20:12;21.80;53.70
42097;DHT22;27754;45.414;11.084;2023-04-24T13:22:39;21.80;54.20
42097;DHT22;27754;45.414;11.084;2023-04-24T13:25:06;21.90;52.40
42097;DHT22;27754;45.414;11.084;2023-04-24T13:27:33;22.00;52.20
42097;DHT22;27754;45.414;11.084;2023-04-24T13:30:01;22.10;52.90
42097;DHT22;27754;45.414;11.084;2023-04-24T13:32:27;22.10;52.30
42097;DHT22;27754;45.414;11.084;2023-04-24T13:34:56;22.00;53.10
42097;DHT22;27754;45.414;11.084;2023-04-24T13:37:23;22.10;51.30
42097;DHT22;27754;45.414;11.084;2023-04-24T13:39:50;21.90;51.70
42097;DHT22;27754;45.414;11.084;2023-04-24T13:42:18;22.20;51.90
42097;DHT22;27754;45.414;11.084;2023-04-24T13:44:46;22.30;47.80
42097;DHT22;27754;45.414;11.084;2023-04-24T13:47:13;22.30;49.60
42097;DHT22;27754;45.414;11.084;2023-04-24T13:49:40;22.30;49.90
42097;DHT22;27754;45.414;11.084;2023-04-24T13:52:07;22.20;49.40
42097;DHT22;27754;45.414;11.084;2023-04-24T13:54:34;22.20;51.30
42097;DHT22;27754;45.414;11.084;2023-04-24T13:57:01;22.20;50.10
42097;DHT22;27754;45.414;11.084;2023-04-24T13:59:29;22.20;50.30
42097;DHT22;27754;45.414;11.084;2023-04-24T14:01:56;22.30;52.30
42097;DHT22;27754;45.414;11.084;2023-04-24T14:04:23;22.40;52.30
42097;DHT22;27754;45.414;11.084;2023-04-24T14:06:51;22.30;54.00
42097;DHT22;27754;45.414;11.084;2023-04-24T14:09:17;22.30;53.10
42097;DHT22;27754;45.414;11.084;2023-04-24T14:11:44;22.30;52.90
42097;DHT22;27754;45.414;11.084;2023-04-24T14:14:11;22.30;51.20
42097;DHT22;27754;45.414;11.084;2023-04-24T14:16:38;22.30;53.00
42097;DHT22;27754;45.414;11.084;2023-04-24T14:19:05;22.30;53.10
42097;DHT22;27754;45.414;11.084;2023-04-24T14:21:33;22.30;53.70
42097;DHT22;27754;45.414;11.084;2023-04-24T14:24:00;22.40;54.10
42097;DHT22;27754;45.414;11.084;2023-04-24T14:26:27;22.40;52.80
42097;DHT22;27754;45.414;11.084;2023-04-24T14:28:54;22.60;51.60
42097;DHT22;27754;45.414;11.084;2023-04-24T14:31:36;22.40;49.50
42097;DHT22;27754;45.414;11.084;2023-04-24T14:34:03;22.60;49.40
42097;DHT22;27754;45.414;11.084;2023-04-24T14:36:30;22.60;50.90
42097;DHT22;27754;45.414;11.084;2023-04-24T14:38:58;22.50;53.20
42097;DHT22;27754;45.414;11.084;2023-04-24T14:41:25;22.40;52.10
42097;DHT22;27754;45.414;11.084;2023-04-24T14:43:51;22.40;51.50
42097;DHT22;27754;45.414;11.084;2023-04-24T14:46:18;22.40;51.50
42097;DHT22;27754;45.414;11.084;2023-04-24T14:48:45;22.30;53.10
42097;DHT22;27754;45.414;11.084;2023-04-24T14:51:12;22.30;53.20
42097;DHT22;27754;45.414;11.084;2023-04-24T14:53:39;22.10;52.00
42097;DHT22;27754;45.414;11.084;2023-04-24T14:56:06;21.90;53.30
42097;DHT22;27754;45.414;11.084;2023-04-24T14:58:33;21.70;53.70
42097;DHT22;27754;45.414;11.084;2023-04-24T15:01:01;21.60;54.40
42097;DHT22;27754;45.414;11.084;2023-04-24T15:03:27;21.60;55.30
42097;DHT22;27754;45.414;11.084;2023-04-24T15:05:56;21.60;55.60
42097;DHT22;27754;45.414;11.084;2023-04-24T15:08:23;21.40;57.80
42097;DHT22;27754;45.414;11.084;2023-04-24T15:10:50;21.40;58.40
42097;DHT22;27754;45.414;11.084;2023-04-24T15:13:17;21.50;60.00
42097;DHT22;27754;45.414;11.084;2023-04-24T15:15:46;21.50;61.10
42097;DHT22;27754;45.414;11.084;2023-04-24T15:18:14;21.40;60.80
42097;DHT22;27754;45.414;11.084;2023-04-24T15:20:41;21.30;61.00
42097;DHT22;27754;45.414;11.084;2023-04-24T15:23:09;21.30;61.20
42097;DHT22;27754;45.414;11.084;2023-04-24T15:25:37;21.30;61.60
42097;DHT22;27754;45.414;11.084;2023-04-24T15:28:04;21.30;62.10
42097;DHT22;27754;45.414;11.084;2023-04-24T15:30:32;21.30;62.40
42097;DHT22;27754;45.414;11.084;2023-04-24T15:33:00;21.30;63.00